< < Back
Terminal Aerodrome Forecast


Current Version              Previous Versions:   1  2  3  4  5  6  7  8  9  

Terminal Aerodrome Forecast

141
FTUS44 KMRX 010700 AAA
TAFCHA
TAF AMD
KCHA 010700Z 0107/0206 18006KT P6SM OVC025
     FM011800 16005KT P6SM OVC012
     FM020100 VRB02KT 4SM -SHRA BR OVC007=

Latest METAR

541
SAUS80 KWBC 020500
MTRCHA
METAR KCHA 020453Z 00000KT 1 1/2SM BR BKN011 BKN031 OVC075 08/07 A3034
RMK AO2 TWR VIS 3 RAE53 SLP273 LAST P0002 T00780067
401000056


USA.gov is the U.S. government's official web portal to all federal, state and local government web resources and services.